| time (UTC) | temp F | wind direction | speed MPH | gust MPH | rain 1hr in | rain 24hr in | rain mn in | humidity % | barometer mb |
| 20260831072806 | 63 | 299 | 0.0 | 0.0 | 0.00 | 0.00 | 0.00 | 95 | 1021.0 |
| 20260831072758 | 63 | 299 | 0.0 | 0.0 | 0.00 | 0.00 | 0.00 | 95 | 1021.0 |
| 20260831071751 | 63 | 299 | 0.0 | 0.0 | 0.00 | 0.00 | 0.00 | 95 | 1021.0 |
| 20260831071527 | 63 | 299 | 0.0 | 0.0 | 0.00 | 0.00 | 0.00 | 94 | 1021.1 |
| 20260831070751 | 63 | 299 | 0.0 | 0.0 | 0.00 | 0.00 | 0.00 | 94 | 1021.1 |
| 20260831070251 | 63 | 299 | 0.0 | 0.0 | 0.00 | 0.00 | 0.00 | 94 | 1021.0 |
| 20260831065751 | 63 | 299 | 0.0 | 0.0 | 0.00 | 0.00 | 0.00 | 94 | 1021.0 |
| 20260831065252 | 63 | 299 | 0.0 | 0.0 | 0.00 | 0.00 | 0.00 | 94 | 1021.0 |
| 20260831064750 | 63 | 299 | 0.0 | 0.0 | 0.00 | 0.00 | 0.00 | 94 | 1021.0 |
| 20260831064250 | 63 | 299 | 0.0 | 0.0 | 0.00 | 0.00 | 0.00 | 94 | 1020.9 |
| 20260831063751 | 63 | 299 | 0.0 | 0.0 | 0.00 | 0.00 | 0.00 | 94 | 1020.9 |
| 20260831063526 | 63 | 299 | 0.0 | 0.0 | 0.00 | 0.00 | 0.00 | 94 | 1020.8 |
| 20260831062751 | 63 | 299 | 0.0 | 0.0 | 0.00 | 0.00 | 0.00 | 94 | 1020.9 |
| 20260831062252 | 63 | 299 | 0.0 | 1.0 | 0.00 | 0.00 | 0.00 | 94 | 1021.0 |
| 20260831061751 | 63 | 299 | 0.0 | 2.0 | 0.00 | 0.00 | 0.00 | 94 | 1021.2 |
| 20260831061530 | 63 | 299 | 1.0 | 2.0 | 0.00 | 0.00 | 0.00 | 94 | 1021.2 |
| 20260831060750 | 63 | 299 | 0.0 | 2.0 | 0.00 | 0.00 | 0.00 | 94 | 1021.2 |
| 20260831060251 | 63 | 299 | 1.0 | 2.0 | 0.00 | 0.00 | 0.00 | 94 | 1021.3 |
| 20260831055751 | 64 | 299 | 1.0 | 2.0 | 0.00 | 0.00 | 0.00 | 94 | 1021.3 |
| 20260831055528 | 64 | 299 | 1.0 | 3.0 | 0.00 | 0.00 | 0.00 | 94 | 1021.4 |
| 20260831054750 | 64 | 299 | 1.0 | 4.0 | 0.00 | 0.00 | 0.00 | 94 | 1021.4 |
| 20260831054251 | 64 | 299 | 0.0 | 4.0 | 0.00 | 0.00 | 0.00 | 94 | 1021.3 |
| 20260831053751 | 64 | 276 | 2.0 | 4.0 | 0.00 | 0.00 | 0.00 | 94 | 1021.5 |
| 20260831053251 | 64 | 306 | 1.0 | 4.0 | 0.00 | 0.00 | 0.00 | 93 | 1021.5 |
| 20260831052750 | 64 | 306 | 2.0 | 5.0 | 0.00 | 0.00 | 0.00 | 93 | 1021.5 |
| 20260831052528 | 64 | 275 | 2.0 | 6.0 | 0.00 | 0.00 | 0.00 | 93 | 1021.6 |
| 20260831051750 | 64 | 262 | 3.0 | 6.0 | 0.00 | 0.00 | 0.00 | 93 | 1021.5 |
| 20260831051251 | 64 | 305 | 4.0 | 6.0 | 0.00 | 0.00 | 0.00 | 93 | 1021.6 |
| 20260831050749 | 64 | 283 | 3.0 | 6.0 | 0.00 | 0.00 | 0.00 | 93 | 1021.7 |
| 20260831050251 | 64 | 274 | 2.0 | 4.0 | 0.00 | 0.00 | 0.00 | 93 | 1021.7 |
| 20260831045750 | 64 | 255 | 2.0 | 3.0 | 0.00 | 0.00 | 0.00 | 93 | 1021.6 |
| 20260831045529 | 64 | 245 | 1.0 | 3.0 | 0.00 | 0.00 | 0.00 | 93 | 1021.6 |
| 20260831044751 | 64 | 245 | 0.0 | 4.0 | 0.00 | 0.00 | 0.00 | 93 | 1021.5 |
| 20260831044250 | 64 | 231 | 2.0 | 4.0 | 0.00 | 0.00 | 0.00 | 93 | 1021.7 |
| 20260831044030 | 64 | 269 | 1.0 | 2.0 | 0.00 | 0.00 | 0.00 | 93 | 1021.6 |
| 20260831043251 | 64 | 269 | 1.0 | 2.0 | 0.00 | 0.00 | 0.00 | 93 | 1021.7 |
| 20260831042751 | 64 | 269 | 1.0 | 2.0 | 0.00 | 0.00 | 0.00 | 93 | 1021.6 |
| 20260831042251 | 64 | 269 | 0.0 | 4.0 | 0.00 | 0.00 | 0.00 | 93 | 1021.5 |
| 20260831042027 | 64 | 269 | 2.0 | 4.0 | 0.00 | 0.00 | 0.00 | 93 | 1021.6 |
| 20260831041250 | 64 | 264 | 1.0 | 5.0 | 0.00 | 0.00 | 0.00 | 93 | 1021.6 |
| 20260831040752 | 64 | 296 | 2.0 | 5.0 | 0.00 | 0.00 | 0.00 | 93 | 1021.6 |
| 20260831040252 | 64 | 283 | 2.0 | 3.0 | 0.00 | 0.00 | 0.00 | 93 | 1021.7 |
| 20260831035749 | 64 | 124 | 0.0 | 1.0 | 0.00 | 0.00 | 0.00 | 93 | 1021.5 |
| 20260831035307 | 64 | 124 | 1.0 | 3.0 | 0.00 | 0.00 | 0.00 | 93 | 1021.5 |
| 20260831035300 | 64 | 124 | 0.0 | 2.0 | 0.00 | 0.00 | 0.00 | 93 | 1021.6 |
| 20260831034250 | 64 | 124 | 2.0 | 3.0 | 0.00 | 0.00 | 0.00 | 93 | 1021.6 |
| 20260831033750 | 64 | 124 | 2.0 | 4.0 | 0.00 | 0.00 | 0.00 | 92 | 1021.5 |
| 20260831033250 | 64 | 124 | 3.0 | 4.0 | 0.00 | 0.00 | 0.00 | 92 | 1021.5 |
| 20260831032750 | 64 | 124 | 3.0 | 4.0 | 0.00 | 0.00 | 0.00 | 92 | 1021.5 |
| 20260831032250 | 64 | 124 | 2.0 | 3.0 | 0.00 | 0.00 | 0.00 | 92 | 1021.7 |
| 20260831031750 | 64 | 124 | 2.0 | 3.0 | 0.00 | 0.00 | 0.00 | 92 | 1021.5 |
| 20260831031250 | 64 | 124 | 2.0 | 3.0 | 0.00 | 0.00 | 0.00 | 92 | 1021.6 |
| 20260831030750 | 64 | 164 | 0.0 | 0.0 | 0.00 | 0.00 | 0.00 | 92 | 1021.7 |
| 20260831030250 | 64 | 164 | 0.0 | 0.0 | 0.00 | 0.00 | 0.00 | 91 | 1021.8 |
| 20260831025752 | 64 | 164 | 0.0 | 0.0 | 0.00 | 0.00 | 0.00 | 91 | 1021.7 |
| 20260831025251 | 64 | 164 | 0.0 | 0.0 | 0.00 | 0.00 | 0.00 | 91 | 1021.6 |
| 20260831024750 | 64 | 164 | 0.0 | 1.0 | 0.00 | 0.00 | 0.00 | 91 | 1021.7 |
| 20260831024308 | 64 | 164 | 0.0 | 3.0 | 0.00 | 0.00 | 0.00 | 91 | 1021.6 |
| 20260831024301 | 64 | 164 | 0.0 | 1.0 | 0.00 | 0.00 | 0.00 | 91 | 1021.6 |
| 20260831023250 | 64 | 164 | 2.0 | 3.0 | 0.00 | 0.00 | 0.00 | 91 | 1021.6 |
| 20260831022750 | 64 | 164 | 0.0 | 3.0 | 0.00 | 0.00 | 0.00 | 91 | 1021.7 |
| 20260831022251 | 64 | 164 | 1.0 | 4.0 | 0.00 | 0.00 | 0.00 | 91 | 1021.7 |
| 20260831021751 | 64 | 82 | 1.0 | 4.0 | 0.00 | 0.00 | 0.00 | 91 | 1021.6 |
| 20260831021251 | 64 | 76 | 3.0 | 9.0 | 0.00 | 0.00 | 0.00 | 90 | 1021.6 |
| 20260831020750 | 65 | 18 | 6.0 | 9.0 | 0.00 | 0.00 | 0.00 | 90 | 1021.5 |
| 20260831020305 | 65 | 72 | 1.0 | 3.0 | 0.00 | 0.00 | 0.00 | 89 | 1021.6 |
| 20260831020257 | 65 | 55 | 2.0 | 5.0 | 0.00 | 0.00 | 0.00 | 90 | 1021.7 |
| 20260831015530 | 65 | 55 | 0.0 | 0.0 | 0.00 | 0.00 | 0.00 | 89 | 1021.9 |
| 20260831015026 | 65 | 55 | 0.0 | 0.0 | 0.00 | 0.00 | 0.00 | 88 | 1021.9 |
| 20260831014529 | 65 | 55 | 0.0 | 1.0 | 0.00 | 0.00 | 0.00 | 87 | 1021.9 |
| 20260831013750 | 65 | 55 | 0.0 | 1.0 | 0.00 | 0.00 | 0.00 | 87 | 1021.9 |
| 20260831013250 | 65 | 31 | 0.0 | 1.0 | 0.00 | 0.00 | 0.00 | 87 | 1021.8 |
| 20260831012750 | 65 | 31 | 0.0 | 4.0 | 0.00 | 0.00 | 0.00 | 87 | 1021.7 |
| 20260831012250 | 66 | 31 | 0.0 | 4.0 | 0.00 | 0.00 | 0.00 | 87 | 1021.7 |
| 20260831012029 | 66 | 58 | 0.0 | 4.0 | 0.00 | 0.00 | 0.00 | 87 | 1021.7 |
| 20260831011250 | 66 | 79 | 2.0 | 5.0 | 0.00 | 0.00 | 0.00 | 87 | 1021.4 |
| 20260831010808 | 66 | 49 | 2.0 | 5.0 | 0.00 | 0.00 | 0.00 | 86 | 1021.4 |
| 20260831010802 | 66 | 87 | 1.0 | 5.0 | 0.00 | 0.00 | 0.00 | 86 | 1021.5 |
| 20260831005802 | 66 | 55 | 1.0 | 9.0 | 0.00 | 0.00 | 0.00 | 85 | 1021.4 |
| 20260831004750 | 67 | 52 | 1.0 | 5.0 | 0.00 | 0.00 | 0.00 | 84 | 1021.4 |
| 20260831004252 | 67 | 65 | 1.0 | 4.0 | 0.00 | 0.00 | 0.00 | 84 | 1021.4 |
| 20260831003751 | 67 | 10 | 2.0 | 4.0 | 0.00 | 0.00 | 0.00 | 84 | 1021.3 |
| 20260831003250 | 67 | 21 | 1.0 | 5.0 | 0.00 | 0.00 | 0.00 | 84 | 1021.1 |
| 20260831002750 | 68 | 39 | 2.0 | 5.0 | 0.00 | 0.00 | 0.00 | 83 | 1021.2 |
| 20260831002518 | 68 | 49 | 1.0 | 5.0 | 0.00 | 0.00 | 0.00 | 83 | 1021.1 |
| 20260831002506 | 68 | 330 | 1.0 | 5.0 | 0.00 | 0.00 | 0.00 | 83 | 1021.2 |
| 20260831001250 | 68 | 1 | 0.0 | 2.0 | 0.00 | 0.00 | 0.00 | 83 | 1021.1 |
| 20260831001029 | 69 | 1 | 0.0 | 2.0 | 0.00 | 0.00 | 0.00 | 83 | 1021.0 |
| 20260831000251 | 69 | 279 | 0.0 | 0.0 | 0.00 | 0.00 | 0.00 | 83 | 1020.9 |
| 20260830235751 | 69 | 279 | 0.0 | 0.0 | 0.00 | 0.00 | 0.00 | 82 | 1020.8 |
| 20260830235250 | 69 | 279 | 0.0 | 0.0 | 0.00 | 0.00 | 0.00 | 82 | 1020.6 |
| 20260830234750 | 69 | 279 | 0.0 | 0.0 | 0.00 | 0.00 | 0.00 | 82 | 1020.6 |
| 20260830234250 | 69 | 279 | 0.0 | 0.0 | 0.00 | 0.00 | 0.00 | 82 | 1020.5 |
| 20260830233752 | 69 | 279 | 0.0 | 0.0 | 0.00 | 0.00 | 0.00 | 81 | 1020.5 |
| 20260830233250 | 69 | 279 | 0.0 | 0.0 | 0.00 | 0.00 | 0.00 | 81 | 1020.6 |
| 20260830232750 | 69 | 279 | 0.0 | 0.0 | 0.00 | 0.00 | 0.00 | 81 | 1020.6 |
| 20260830232528 | 69 | 279 | 0.0 | 0.0 | 0.00 | 0.00 | 0.00 | 81 | 1020.5 |
| 20260830231750 | 70 | 279 | 0.0 | 0.0 | 0.00 | 0.00 | 0.00 | 81 | 1020.6 |
| 20260830231250 | 70 | 279 | 0.0 | 0.0 | 0.00 | 0.00 | 0.00 | 82 | 1020.6 |
| 20260830231028 | 70 | 279 | 0.0 | 0.0 | 0.00 | 0.00 | 0.00 | 81 | 1020.7 |
| 20260830230250 | 70 | 279 | 0.0 | 0.0 | 0.00 | 0.00 | 0.00 | 81 | 1020.6 |
| 20260830225750 | 70 | 279 | 0.0 | 0.0 | 0.00 | 0.00 | 0.00 | 81 | 1020.5 |
| 20260830225250 | 70 | 279 | 0.0 | 0.0 | 0.00 | 0.00 | 0.00 | 81 | 1020.5 |
| 20260830224750 | 70 | 279 | 0.0 | 0.0 | 0.00 | 0.00 | 0.00 | 81 | 1020.5 |
| 20260830224250 | 69 | 279 | 0.0 | 0.0 | 0.00 | 0.00 | 0.00 | 81 | 1020.6 |
| 20260830223750 | 69 | 279 | 0.0 | 0.0 | 0.00 | 0.00 | 0.00 | 81 | 1020.7 |
| 20260830223249 | 69 | 279 | 0.0 | 0.0 | 0.00 | 0.00 | 0.00 | 81 | 1020.7 |
| 20260830222752 | 69 | 279 | 0.0 | 0.0 | 0.00 | 0.00 | 0.00 | 81 | 1020.7 |
| 20260830222527 | 69 | 279 | 0.0 | 2.0 | 0.00 | 0.00 | 0.00 | 81 | 1020.7 |
| 20260830221750 | 69 | 279 | 0.0 | 2.0 | 0.00 | 0.00 | 0.00 | 81 | 1020.6 |
| 20260830221250 | 69 | 279 | 0.0 | 2.0 | 0.00 | 0.00 | 0.00 | 81 | 1020.7 |
| 20260830220750 | 69 | 279 | 0.0 | 2.0 | 0.00 | 0.00 | 0.00 | 81 | 1020.5 |
| 20260830220250 | 69 | 279 | 0.0 | 3.0 | 0.00 | 0.00 | 0.00 | 81 | 1020.5 |
| 20260830215750 | 69 | 279 | 1.0 | 3.0 | 0.00 | 0.00 | 0.00 | 81 | 1020.5 |
| 20260830215251 | 69 | 302 | 0.0 | 3.0 | 0.00 | 0.00 | 0.00 | 81 | 1020.8 |
| 20260830214751 | 69 | 310 | 0.0 | 3.0 | 0.00 | 0.00 | 0.00 | 81 | 1020.7 |
| 20260830214250 | 69 | 310 | 0.0 | 3.0 | 0.00 | 0.00 | 0.00 | 81 | 1020.7 |
| 20260830213750 | 69 | 289 | 0.0 | 4.0 | 0.00 | 0.00 | 0.00 | 81 | 1020.5 |
| 20260830213250 | 69 | 289 | 0.0 | 4.0 | 0.00 | 0.00 | 0.00 | 81 | 1020.3 |
| 20260830212750 | 69 | 293 | 1.0 | 4.0 | 0.00 | 0.00 | 0.00 | 81 | 1020.6 |
| 20260830212249 | 69 | 316 | 1.0 | 5.0 | 0.00 | 0.00 | 0.00 | 81 | 1020.7 |
| 20260830211752 | 69 | 296 | 1.0 | 5.0 | 0.00 | 0.00 | 0.00 | 81 | 1020.6 |
| 20260830211251 | 69 | 309 | 0.0 | 4.0 | 0.00 | 0.00 | 0.00 | 81 | 1020.6 |
| 20260830210750 | 69 | 307 | 1.0 | 5.0 | 0.00 | 0.00 | 0.00 | 80 | 1020.6 |
| 20260830210249 | 69 | 272 | 2.0 | 5.0 | 0.00 | 0.00 | 0.00 | 80 | 1020.5 |
| 20260830210028 | 70 | 257 | 1.0 | 5.0 | 0.00 | 0.00 | 0.00 | 80 | 1020.6 |
| 20260830205250 | 70 | 305 | 3.0 | 5.0 | 0.00 | 0.00 | 0.00 | 80 | 1020.6 |
| 20260830205029 | 70 | 302 | 2.0 | 5.0 | 0.00 | 0.00 | 0.00 | 79 | 1020.7 |
| 20260830204249 | 70 | 271 | 2.0 | 5.0 | 0.00 | 0.00 | 0.00 | 79 | 1020.7 |
| 20260830203750 | 70 | 289 | 2.0 | 5.0 | 0.00 | 0.00 | 0.00 | 79 | 1020.7 |
| 20260830203250 | 70 | 309 | 1.0 | 4.0 | 0.00 | 0.00 | 0.00 | 80 | 1020.7 |
| 20260830202752 | 70 | 298 | 0.0 | 5.0 | 0.00 | 0.00 | 0.00 | 80 | 1020.7 |
| 20260830202250 | 70 | 336 | 1.0 | 5.0 | 0.00 | 0.00 | 0.00 | 80 | 1020.8 |
| 20260830202026 | 70 | 319 | 0.0 | 2.0 | 0.00 | 0.00 | 0.00 | 80 | 1020.7 |
| 20260830201250 | 70 | 283 | 0.0 | 1.0 | 0.00 | 0.00 | 0.00 | 81 | 1020.7 |
| 20260830201030 | 70 | 283 | 0.0 | 0.0 | 0.00 | 0.00 | 0.00 | 81 | 1020.7 |
| 20260830200249 | 71 | 283 | 0.0 | 2.0 | 0.00 | 0.00 | 0.00 | 80 | 1020.7 |
| 20260830195749 | 71 | 283 | 0.0 | 4.0 | 0.00 | 0.00 | 0.00 | 79 | 1020.7 |
| 20260830195525 | 71 | 300 | 0.0 | 4.0 | 0.00 | 0.00 | 0.00 | 79 | 1020.8 |
| 20260830195030 | 71 | 307 | 0.0 | 3.0 | 0.00 | 0.00 | 0.00 | 79 | 1020.9 |
| 20260830194249 | 71 | 320 | 1.0 | 6.0 | 0.00 | 0.00 | 0.00 | 78 | 1020.9 |
| 20260830193749 | 71 | 271 | 2.0 | 6.0 | 0.00 | 0.00 | 0.00 | 78 | 1020.8 |
| 20260830193529 | 72 | 285 | 2.0 | 5.0 | 0.00 | 0.00 | 0.00 | 77 | 1020.8 |
| 20260830192751 | 72 | 286 | 0.0 | 4.0 | 0.00 | 0.00 | 0.00 | 77 | 1020.8 |
| 20260830192305 | 72 | 298 | 0.0 | 3.0 | 0.00 | 0.00 | 0.00 | 77 | 1021.0 |
| 20260830192257 | 72 | 269 | 0.0 | 4.0 | 0.00 | 0.00 | 0.00 | 77 | 1020.9 |
| 20260830191249 | 72 | 290 | 0.0 | 1.0 | 0.00 | 0.00 | 0.00 | 75 | 1020.9 |
| 20260830190750 | 72 | 298 | 0.0 | 6.0 | 0.00 | 0.00 | 0.00 | 74 | 1021.0 |
| 20260830190527 | 72 | 296 | 2.0 | 10.0 | 0.00 | 0.00 | 0.00 | 74 | 1021.1 |
| 20260830190028 | 72 | 289 | 6.0 | 12.0 | 0.00 | 0.00 | 0.00 | 73 | 1021.1 |
| 20260830185250 | 72 | 271 | 8.0 | 12.0 | 0.00 | 0.00 | 0.00 | 72 | 1021.0 |
| 20260830184812 | 73 | 272 | 7.0 | 12.0 | 0.00 | 0.00 | 0.00 | 72 | 1020.8 |
| 20260830184805 | 73 | 286 | 6.0 | 12.0 | 0.00 | 0.00 | 0.00 | 72 | 1021.0 |
| 20260830183749 | 73 | 281 | 6.0 | 13.0 | 0.00 | 0.00 | 0.00 | 72 | 1021.0 |
| 20260830183250 | 73 | 282 | 6.0 | 13.0 | 0.00 | 0.00 | 0.00 | 72 | 1021.0 |
| 20260830182750 | 73 | 293 | 7.0 | 12.0 | 0.00 | 0.00 | 0.00 | 72 | 1021.0 |
| 20260830182258 | 73 | 268 | 7.0 | 12.0 | 0.00 | 0.00 | 0.00 | 72 | 1020.9 |
| 20260830181249 | 73 | 307 | 6.0 | 11.0 | 0.00 | 0.00 | 0.00 | 73 | 1020.9 |
| 20260830180749 | 73 | 314 | 4.0 | 10.0 | 0.00 | 0.00 | 0.00 | 74 | 1021.0 |
| 20260830180250 | 73 | 298 | 6.0 | 10.0 | 0.00 | 0.00 | 0.00 | 72 | 1021.0 |
| 20260830175750 | 73 | 305 | 4.0 | 7.0 | 0.00 | 0.00 | 0.00 | 74 | 1021.0 |
| 20260830175250 | 73 | 276 | 3.0 | 6.0 | 0.00 | 0.00 | 0.00 | 73 | 1021.0 |
| 20260830174749 | 73 | 265 | 0.0 | 5.0 | 0.00 | 0.00 | 0.00 | 72 | 1021.0 |
| 20260830174528 | 74 | 279 | 3.0 | 5.0 | 0.00 | 0.00 | 0.00 | 72 | 1020.9 |
| 20260830173750 | 74 | 271 | 2.0 | 4.0 | 0.00 | 0.00 | 0.00 | 71 | 1021.0 |
| 20260830173529 | 74 | 290 | 1.0 | 4.0 | 0.00 | 0.00 | 0.00 | 70 | 1020.9 |
| 20260830172749 | 74 | 257 | 0.0 | 6.0 | 0.00 | 0.00 | 0.00 | 69 | 1021.0 |
| 20260830172315 | 74 | 252 | 2.0 | 6.0 | 0.00 | 0.00 | 0.00 | 68 | 1021.0 |
| 20260830172039 | 74 | 257 | 2.0 | 10.0 | 0.00 | 0.00 | 0.00 | 68 | 1021.0 |
| 20260830170751 | 75 | 233 | 4.0 | 5.0 | 0.00 | 0.00 | 0.00 | 67 | 1021.0 |
| 20260830170249 | 75 | 254 | 2.0 | 9.0 | 0.00 | 0.00 | 0.00 | 66 | 1021.0 |
| 20260830165749 | 75 | 245 | 5.0 | 10.0 | 0.00 | 0.00 | 0.00 | 66 | 1021.0 |
| 20260830165249 | 76 | 278 | 3.0 | 12.0 | 0.00 | 0.00 | 0.00 | 66 | 1021.1 |
| 20260830165027 | 76 | 268 | 5.0 | 12.0 | 0.00 | 0.00 | 0.00 | 65 | 1021.1 |
| 20260830164250 | 76 | 248 | 5.0 | 9.0 | 0.00 | 0.00 | 0.00 | 65 | 1021.0 |
| 20260830163750 | 77 | 241 | 4.0 | 9.0 | 0.00 | 0.00 | 0.00 | 64 | 1021.1 |
| 20260830163249 | 77 | 264 | 3.0 | 10.0 | 0.00 | 0.00 | 0.00 | 64 | 1021.1 |
| 20260830162750 | 77 | 282 | 3.0 | 12.0 | 0.00 | 0.00 | 0.00 | 64 | 1021.0 |
| 20260830162249 | 77 | 293 | 5.0 | 12.0 | 0.00 | 0.00 | 0.00 | 63 | 1021.1 |
| 20260830161749 | 77 | 248 | 4.0 | 11.0 | 0.00 | 0.00 | 0.00 | 64 | 1021.2 |
| 20260830161249 | 77 | 240 | 2.0 | 9.0 | 0.00 | 0.00 | 0.00 | 64 | 1021.3 |
| 20260830161029 | 77 | 219 | 4.0 | 9.0 | 0.00 | 0.00 | 0.00 | 66 | 1021.4 |
| 20260830160250 | 76 | 226 | 1.0 | 5.0 | 0.00 | 0.00 | 0.00 | 65 | 1021.5 |
| 20260830155748 | 76 | 235 | 0.0 | 7.0 | 0.00 | 0.00 | 0.00 | 67 | 1021.5 |
| 20260830155529 | 76 | 212 | 3.0 | 7.0 | 0.00 | 0.00 | 0.00 | 67 | 1021.5 |
| 20260830155041 | 76 | 210 | 5.0 | 9.0 | 0.00 | 0.00 | 0.00 | 65 | 1021.6 |
| 20260830155037 | 76 | 250 | 3.0 | 9.0 | 0.00 | 0.00 | 0.00 | 66 | 1021.5 |
| 20260830153755 | 76 | 233 | 2.0 | 7.0 | 0.00 | 0.00 | 0.00 | 68 | 1021.6 |
| 20260830153749 | 76 | 217 | 4.0 | 9.0 | 0.00 | 0.00 | 0.00 | 67 | 1021.7 |
| 20260830152749 | 76 | 214 | 1.0 | 5.0 | 0.00 | 0.00 | 0.00 | 69 | 1021.6 |
| 20260830152250 | 75 | 281 | 2.0 | 9.0 | 0.00 | 0.00 | 0.00 | 68 | 1021.5 |
| 20260830151749 | 75 | 186 | 2.0 | 9.0 | 0.00 | 0.00 | 0.00 | 68 | 1021.5 |
| 20260830151249 | 74 | 204 | 3.0 | 10.0 | 0.00 | 0.00 | 0.00 | 68 | 1021.5 |
| 20260830150750 | 74 | 292 | 4.0 | 10.0 | 0.00 | 0.00 | 0.00 | 69 | 1021.5 |
| 20260830150249 | 73 | 223 | 5.0 | 7.0 | 0.00 | 0.00 | 0.00 | 70 | 1021.6 |
| 20260830145750 | 73 | 214 | 2.0 | 5.0 | 0.00 | 0.00 | 0.00 | 71 | 1021.7 |
| 20260830145249 | 72 | 171 | 2.0 | 6.0 | 0.00 | 0.00 | 0.00 | 71 | 1021.6 |
| 20260830144748 | 72 | 298 | 3.0 | 6.0 | 0.00 | 0.00 | 0.00 | 72 | 1021.6 |
| 20260830144527 | 72 | 307 | 4.0 | 6.0 | 0.00 | 0.00 | 0.00 | 71 | 1021.6 |
| 20260830143802 | 72 | 206 | 2.0 | 6.0 | 0.00 | 0.00 | 0.00 | 72 | 1021.7 |
| 20260830142749 | 71 | 159 | 2.0 | 10.0 | 0.00 | 0.00 | 0.00 | 71 | 1021.5 |
| 20260830142249 | 71 | 162 | 3.0 | 9.0 | 0.00 | 0.00 | 0.00 | 73 | 1021.4 |
| 20260830141750 | 70 | 210 | 2.0 | 7.0 | 0.00 | 0.00 | 0.00 | 74 | 1021.6 |
| 20260830141249 | 69 | 183 | 4.0 | 6.0 | 0.00 | 0.00 | 0.00 | 74 | 1021.6 |
| 20260830140749 | 69 | 214 | 4.0 | 6.0 | 0.00 | 0.00 | 0.00 | 74 | 1021.6 |
| 20260830140529 | 68 | 209 | 0.0 | 6.0 | 0.00 | 0.00 | 0.00 | 76 | 1021.5 |
| 20260830135749 | 68 | 200 | 4.0 | 6.0 | 0.00 | 0.00 | 0.00 | 75 | 1021.6 |
| 20260830135250 | 68 | 171 | 0.0 | 5.0 | 0.00 | 0.00 | 0.00 | 75 | 1021.5 |
| 20260830135026 | 67 | 193 | 2.0 | 5.0 | 0.00 | 0.00 | 0.00 | 76 | 1021.4 |
| 20260830134250 | 67 | 199 | 1.0 | 7.0 | 0.00 | 0.00 | 0.00 | 74 | 1021.5 |
| 20260830133749 | 67 | 245 | 2.0 | 7.0 | 0.00 | 0.00 | 0.00 | 74 | 1021.4 |
| 20260830133249 | 67 | 161 | 0.0 | 6.0 | 0.00 | 0.00 | 0.00 | 75 | 1021.3 |
| 20260830132749 | 67 | 173 | 3.0 | 6.0 | 0.00 | 0.00 | 0.00 | 75 | 1021.3 |
| 20260830132249 | 66 | 216 | 2.0 | 5.0 | 0.00 | 0.00 | 0.00 | 76 | 1021.3 |
| 20260830131749 | 65 | 192 | 3.0 | 5.0 | 0.00 | 0.00 | 0.00 | 75 | 1021.5 |
| 20260830131249 | 65 | 197 | 2.0 | 4.0 | 0.00 | 0.00 | 0.00 | 76 | 1021.5 |
| 20260830130749 | 65 | 202 | 2.0 | 6.0 | 0.00 | 0.00 | 0.00 | 75 | 1021.6 |
| 20260830130249 | 65 | 180 | 3.0 | 6.0 | 0.00 | 0.00 | 0.00 | 76 | 1021.6 |
| 20260830130025 | 65 | 168 | 3.0 | 5.0 | 0.00 | 0.00 | 0.00 | 75 | 1021.6 |
| 20260830125249 | 65 | 171 | 2.0 | 4.0 | 0.00 | 0.00 | 0.00 | 76 | 1021.7 |
| 20260830124749 | 64 | 185 | 1.0 | 3.0 | 0.00 | 0.00 | 0.00 | 76 | 1021.7 |
| 20260830124249 | 64 | 265 | 0.0 | 4.0 | 0.00 | 0.00 | 0.00 | 76 | 1021.9 |
| 20260830123751 | 64 | 182 | 1.0 | 4.0 | 0.00 | 0.00 | 0.00 | 76 | 1021.8 |
| 20260830123251 | 64 | 178 | 1.0 | 4.0 | 0.00 | 0.00 | 0.00 | 76 | 1021.8 |
| 20260830122804 | 63 | 176 | 1.0 | 4.0 | 0.00 | 0.00 | 0.00 | 76 | 1021.9 |
| 20260830122757 | 63 | 169 | 1.0 | 4.0 | 0.00 | 0.00 | 0.00 | 77 | 1021.8 |
| 20260830121749 | 63 | 200 | 1.0 | 3.0 | 0.00 | 0.00 | 0.00 | 76 | 1021.9 |
| 20260830121249 | 63 | 197 | 0.0 | 2.0 | 0.00 | 0.00 | 0.00 | 76 | 1022.0 |
| 20260830120749 | 63 | 180 | 0.0 | 2.0 | 0.00 | 0.00 | 0.00 | 76 | 1021.9 |
| 20260830120249 | 63 | 171 | 0.0 | 4.0 | 0.00 | 0.00 | 0.00 | 76 | 1022.0 |
| 20260830120027 | 63 | 213 | 0.0 | 4.0 | 0.00 | 0.00 | 0.00 | 75 | 1022.1 |
| 20260830115528 | 62 | 206 | 2.0 | 4.0 | 0.00 | 0.00 | 0.00 | 76 | 1022.1 |
| 20260830114749 | 62 | 207 | 1.0 | 4.0 | 0.00 | 0.00 | 0.00 | 76 | 1022.0 |
| 20260830114249 | 62 | 178 | 1.0 | 4.0 | 0.00 | 0.00 | 0.00 | 77 | 1022.1 |
| 20260830113750 | 62 | 149 | 1.0 | 4.0 | 0.00 | 0.00 | 0.00 | 77 | 1022.0 |
| 20260830113249 | 62 | 192 | 0.0 | 6.0 | 0.00 | 0.00 | 0.00 | 78 | 1022.0 |
| 20260830112750 | 62 | 168 | 2.0 | 6.0 | 0.00 | 0.00 | 0.00 | 77 | 1022.0 |
| 20260830112249 | 62 | 188 | 1.0 | 3.0 | 0.00 | 0.00 | 0.00 | 78 | 1022.1 |
| 20260830111749 | 62 | 176 | 0.0 | 4.0 | 0.00 | 0.00 | 0.00 | 78 | 1022.1 |
| 20260830111248 | 62 | 176 | 1.0 | 4.0 | 0.00 | 0.00 | 0.00 | 78 | 1022.0 |
| 20260830110749 | 61 | 190 | 1.0 | 4.0 | 0.00 | 0.00 | 0.00 | 78 | 1022.2 |
| 20260830110249 | 61 | 162 | 2.0 | 4.0 | 0.00 | 0.00 | 0.00 | 77 | 1022.2 |
| 20260830105749 | 61 | 165 | 1.0 | 4.0 | 0.00 | 0.00 | 0.00 | 77 | 1022.0 |
| 20260830105249 | 61 | 162 | 0.0 | 5.0 | 0.00 | 0.00 | 0.00 | 77 | 1022.1 |
| 20260830104749 | 61 | 169 | 2.0 | 5.0 | 0.00 | 0.00 | 0.00 | 77 | 1022.1 |
| 20260830104249 | 61 | 175 | 2.0 | 5.0 | 0.00 | 0.00 | 0.00 | 77 | 1022.1 |
| 20260830104026 | 61 | 161 | 2.0 | 5.0 | 0.00 | 0.00 | 0.00 | 77 | 1022.0 |
| 20260830103249 | 61 | 173 | 0.0 | 3.0 | 0.00 | 0.00 | 0.00 | 76 | 1022.0 |
| 20260830102748 | 61 | 180 | 1.0 | 3.0 | 0.00 | 0.00 | 0.00 | 76 | 1021.9 |
| 20260830102525 | 62 | 195 | 0.0 | 2.0 | 0.00 | 0.00 | 0.00 | 76 | 1022.0 |
| 20260830101750 | 62 | 173 | 0.0 | 2.0 | 0.00 | 0.00 | 0.00 | 76 | 1022.1 |
| 20260830101249 | 62 | 173 | 0.0 | 3.0 | 0.00 | 0.00 | 0.00 | 76 | 1022.0 |
| 20260830100749 | 62 | 173 | 1.0 | 3.0 | 0.00 | 0.00 | 0.00 | 76 | 1022.1 |
| 20260830100249 | 62 | 173 | 2.0 | 4.0 | 0.00 | 0.00 | 0.00 | 75 | 1022.0 |
| 20260830095749 | 62 | 151 | 1.0 | 4.0 | 0.00 | 0.00 | 0.00 | 76 | 1022.0 |
| 20260830095248 | 62 | 159 | 2.0 | 4.0 | 0.00 | 0.00 | 0.00 | 75 | 1022.0 |
| 20260830094749 | 62 | 138 | 2.0 | 3.0 | 0.00 | 0.00 | 0.00 | 75 | 1022.1 |
| 20260830094248 | 62 | 148 | 2.0 | 3.0 | 0.00 | 0.00 | 0.00 | 75 | 1022.1 |
| 20260830094026 | 62 | 175 | 1.0 | 3.0 | 0.00 | 0.00 | 0.00 | 75 | 1022.2 |
| 20260830093248 | 62 | 140 | 1.0 | 4.0 | 0.00 | 0.00 | 0.00 | 74 | 1022.2 |
| 20260830092749 | 62 | 159 | 2.0 | 4.0 | 0.00 | 0.00 | 0.00 | 75 | 1022.2 |
| 20260830092249 | 62 | 145 | 3.0 | 4.0 | 0.00 | 0.00 | 0.00 | 76 | 1022.2 |
| 20260830091748 | 62 | 145 | 1.0 | 5.0 | 0.00 | 0.00 | 0.00 | 74 | 1022.2 |
| 20260830091248 | 62 | 193 | 3.0 | 5.0 | 0.00 | 0.00 | 0.00 | 74 | 1022.3 |
| 20260830091027 | 62 | 172 | 3.0 | 5.0 | 0.00 | 0.00 | 0.00 | 74 | 1022.3 |
| 20260830090249 | 62 | 175 | 1.0 | 4.0 | 0.00 | 0.00 | 0.00 | 74 | 1022.5 |
| 20260830085749 | 62 | 189 | 2.0 | 4.0 | 0.00 | 0.00 | 0.00 | 74 | 1022.6 |
| 20260830085248 | 62 | 199 | 2.0 | 5.0 | 0.00 | 0.00 | 0.00 | 74 | 1022.5 |
| 20260830084748 | 62 | 168 | 2.0 | 6.0 | 0.00 | 0.00 | 0.00 | 74 | 1022.5 |
| 20260830084248 | 62 | 188 | 3.0 | 6.0 | 0.00 | 0.00 | 0.00 | 74 | 1022.6 |
| 20260830083749 | 62 | 161 | 2.0 | 5.0 | 0.00 | 0.00 | 0.00 | 74 | 1022.7 |
| 20260830083250 | 62 | 216 | 2.0 | 6.0 | 0.00 | 0.00 | 0.00 | 74 | 1022.7 |
| 20260830083026 | 62 | 206 | 2.0 | 6.0 | 0.00 | 0.00 | 0.00 | 74 | 1022.7 |
| 20260830082526 | 62 | 202 | 2.0 | 5.0 | 0.00 | 0.00 | 0.00 | 74 | 1022.7 |
| 20260830081748 | 62 | 179 | 1.0 | 5.0 | 0.00 | 0.00 | 0.00 | 74 | 1022.7 |
| 20260830081248 | 62 | 207 | 2.0 | 5.0 | 0.00 | 0.00 | 0.00 | 74 | 1022.8 |
| 20260830080748 | 62 | 214 | 0.0 | 3.0 | 0.00 | 0.00 | 0.00 | 74 | 1022.7 |
| 20260830080248 | 62 | 157 | 0.0 | 2.0 | 0.00 | 0.00 | 0.00 | 74 | 1022.8 |
| 20260830075748 | 62 | 157 | 0.0 | 0.0 | 0.00 | 0.00 | 0.00 | 74 | 1022.8 |
| 20260830075528 | 62 | 157 | 0.0 | 1.0 | 0.00 | 0.00 | 0.00 | 74 | 1022.9 |
| 20260830074748 | 63 | 157 | 0.0 | 1.0 | 0.00 | 0.00 | 0.00 | 74 | 1022.7 |
| 20260830074249 | 63 | 157 | 0.0 | 3.0 | 0.00 | 0.00 | 0.00 | 74 | 1022.8 |
| 20260830073749 | 63 | 157 | 0.0 | 4.0 | 0.00 | 0.00 | 0.00 | 74 | 1022.8 |
| 20260830073248 | 63 | 169 | 1.0 | 4.0 | 0.00 | 0.00 | 0.00 | 74 | 1022.8 |